sensor_id;sensor_type;location;lat;lon;timestamp;P1;durP1;ratioP1;P2;durP2;ratioP2
34739;SDS011;20967;48.442;9.994;2022-08-02T00:01:08;3.72;;;2.67;;
34739;SDS011;20967;48.442;9.994;2022-08-02T00:03:35;6.67;;;2.65;;
34739;SDS011;20967;48.442;9.994;2022-08-02T00:06:03;4.33;;;2.67;;
34739;SDS011;20967;48.442;9.994;2022-08-02T00:08:30;5.20;;;3.08;;
34739;SDS011;20967;48.442;9.994;2022-08-02T00:10:58;7.65;;;2.90;;
34739;SDS011;20967;48.442;9.994;2022-08-02T00:13:26;4.45;;;2.98;;
34739;SDS011;20967;48.442;9.994;2022-08-02T00:15:53;5.15;;;3.00;;
34739;SDS011;20967;48.442;9.994;2022-08-02T00:18:21;4.42;;;2.80;;
34739;SDS011;20967;48.442;9.994;2022-08-02T00:20:49;4.45;;;3.02;;
34739;SDS011;20967;48.442;9.994;2022-08-02T00:23:16;10.82;;;3.87;;
34739;SDS011;20967;48.442;9.994;2022-08-02T00:25:46;9.48;;;5.65;;
34739;SDS011;20967;48.442;9.994;2022-08-02T00:28:13;13.53;;;6.45;;
34739;SDS011;20967;48.442;9.994;2022-08-02T00:30:40;10.20;;;7.22;;
34739;SDS011;20967;48.442;9.994;2022-08-02T00:33:08;11.28;;;7.53;;
34739;SDS011;20967;48.442;9.994;2022-08-02T00:35:36;12.43;;;7.30;;
34739;SDS011;20967;48.442;9.994;2022-08-02T00:38:03;13.25;;;7.58;;
34739;SDS011;20967;48.442;9.994;2022-08-02T00:40:31;9.93;;;6.65;;
34739;SDS011;20967;48.442;9.994;2022-08-02T00:43:06;12.53;;;7.70;;
34739;SDS011;20967;48.442;9.994;2022-08-02T00:48:00;12.82;;;7.10;;
34739;SDS011;20967;48.442;9.994;2022-08-02T00:50:28;13.45;;;6.45;;
34739;SDS011;20967;48.442;9.994;2022-08-02T00:52:56;12.88;;;7.28;;
34739;SDS011;20967;48.442;9.994;2022-08-02T00:55:24;10.05;;;5.95;;
34739;SDS011;20967;48.442;9.994;2022-08-02T00:57:52;12.98;;;6.53;;
34739;SDS011;20967;48.442;9.994;2022-08-02T01:00:20;11.25;;;5.78;;
34739;SDS011;20967;48.442;9.994;2022-08-02T01:02:48;12.60;;;6.33;;
34739;SDS011;20967;48.442;9.994;2022-08-02T01:05:16;11.18;;;5.58;;
34739;SDS011;20967;48.442;9.994;2022-08-02T01:07:44;10.72;;;5.92;;
34739;SDS011;20967;48.442;9.994;2022-08-02T01:10:11;11.55;;;5.60;;
34739;SDS011;20967;48.442;9.994;2022-08-02T01:12:39;10.13;;;5.87;;
34739;SDS011;20967;48.442;9.994;2022-08-02T01:15:07;9.95;;;6.10;;
34739;SDS011;20967;48.442;9.994;2022-08-02T01:20:24;14.13;;;6.87;;
34739;SDS011;20967;48.442;9.994;2022-08-02T01:22:48;17.40;;;6.67;;
34739;SDS011;20967;48.442;9.994;2022-08-02T01:27:50;11.25;;;5.85;;
34739;SDS011;20967;48.442;9.994;2022-08-02T01:30:14;10.13;;;5.53;;
34739;SDS011;20967;48.442;9.994;2022-08-02T01:32:43;9.53;;;5.78;;
34739;SDS011;20967;48.442;9.994;2022-08-02T01:35:15;15.18;;;6.85;;
34739;SDS011;20967;48.442;9.994;2022-08-02T01:37:47;12.35;;;7.25;;
34739;SDS011;20967;48.442;9.994;2022-08-02T01:40:13;15.60;;;7.78;;
34739;SDS011;20967;48.442;9.994;2022-08-02T01:42:47;13.20;;;7.85;;
34739;SDS011;20967;48.442;9.994;2022-08-02T01:45:12;19.57;;;7.67;;
34739;SDS011;20967;48.442;9.994;2022-08-02T01:47:41;14.58;;;7.78;;
34739;SDS011;20967;48.442;9.994;2022-08-02T01:50:10;24.45;;;8.70;;
34739;SDS011;20967;48.442;9.994;2022-08-02T01:52:40;15.95;;;8.43;;
34739;SDS011;20967;48.442;9.994;2022-08-02T01:55:08;18.82;;;8.98;;
34739;SDS011;20967;48.442;9.994;2022-08-02T01:57:38;17.87;;;9.05;;
34739;SDS011;20967;48.442;9.994;2022-08-02T02:00:05;21.50;;;9.68;;
34739;SDS011;20967;48.442;9.994;2022-08-02T02:02:35;17.90;;;9.85;;
34739;SDS011;20967;48.442;9.994;2022-08-02T02:05:03;25.05;;;11.95;;
34739;SDS011;20967;48.442;9.994;2022-08-02T02:07:32;31.85;;;14.15;;
34739;SDS011;20967;48.442;9.994;2022-08-02T02:10:01;31.10;;;13.72;;
34739;SDS011;20967;48.442;9.994;2022-08-02T02:12:29;27.93;;;15.03;;
34739;SDS011;20967;48.442;9.994;2022-08-02T02:14:57;29.87;;;15.25;;
34739;SDS011;20967;48.442;9.994;2022-08-02T02:17:26;36.80;;;16.90;;
34739;SDS011;20967;48.442;9.994;2022-08-02T02:19:54;39.70;;;18.42;;
34739;SDS011;20967;48.442;9.994;2022-08-02T02:22:24;44.85;;;19.02;;
34739;SDS011;20967;48.442;9.994;2022-08-02T02:24:51;41.77;;;20.37;;
34739;SDS011;20967;48.442;9.994;2022-08-02T02:27:19;51.45;;;21.37;;
34739;SDS011;20967;48.442;9.994;2022-08-02T02:29:48;44.67;;;21.35;;
34739;SDS011;20967;48.442;9.994;2022-08-02T02:32:16;53.13;;;22.05;;
34739;SDS011;20967;48.442;9.994;2022-08-02T02:34:44;51.28;;;22.13;;
34739;SDS011;20967;48.442;9.994;2022-08-02T02:37:15;58.92;;;22.50;;
34739;SDS011;20967;48.442;9.994;2022-08-02T02:39:41;58.48;;;22.42;;
34739;SDS011;20967;48.442;9.994;2022-08-02T02:42:10;60.00;;;25.08;;
34739;SDS011;20967;48.442;9.994;2022-08-02T02:44:39;52.70;;;23.73;;
34739;SDS011;20967;48.442;9.994;2022-08-02T02:47:06;61.58;;;25.57;;
34739;SDS011;20967;48.442;9.994;2022-08-02T02:49:35;58.25;;;25.68;;
34739;SDS011;20967;48.442;9.994;2022-08-02T02:52:06;56.25;;;25.50;;
34739;SDS011;20967;48.442;9.994;2022-08-02T02:54:33;58.50;;;26.07;;
34739;SDS011;20967;48.442;9.994;2022-08-02T02:57:01;58.30;;;26.02;;
34739;SDS011;20967;48.442;9.994;2022-08-02T02:59:29;59.05;;;25.72;;
34739;SDS011;20967;48.442;9.994;2022-08-02T03:01:57;58.75;;;24.87;;
34739;SDS011;20967;48.442;9.994;2022-08-02T03:04:26;62.85;;;26.62;;
34739;SDS011;20967;48.442;9.994;2022-08-02T03:06:53;55.28;;;23.95;;
34739;SDS011;20967;48.442;9.994;2022-08-02T03:09:21;50.40;;;23.85;;
34739;SDS011;20967;48.442;9.994;2022-08-02T03:11:49;51.33;;;22.13;;
34739;SDS011;20967;48.442;9.994;2022-08-02T03:14:17;49.70;;;22.75;;
34739;SDS011;20967;48.442;9.994;2022-08-02T03:16:47;46.77;;;22.22;;
34739;SDS011;20967;48.442;9.994;2022-08-02T03:19:16;49.20;;;22.67;;
34739;SDS011;20967;48.442;9.994;2022-08-02T03:21:44;48.28;;;22.10;;
34739;SDS011;20967;48.442;9.994;2022-08-02T03:24:12;44.48;;;22.60;;
34739;SDS011;20967;48.442;9.994;2022-08-02T03:26:42;59.35;;;24.72;;
34739;SDS011;20967;48.442;9.994;2022-08-02T03:29:09;49.10;;;23.32;;
34739;SDS011;20967;48.442;9.994;2022-08-02T03:31:39;55.95;;;23.90;;
34739;SDS011;20967;48.442;9.994;2022-08-02T03:34:08;58.65;;;23.95;;
34739;SDS011;20967;48.442;9.994;2022-08-02T03:36:36;82.47;;;24.50;;
34739;SDS011;20967;48.442;9.994;2022-08-02T03:39:05;109.63;;;22.62;;
34739;SDS011;20967;48.442;9.994;2022-08-02T03:41:34;97.95;;;20.12;;
34739;SDS011;20967;48.442;9.994;2022-08-02T03:44:03;81.22;;;20.57;;
34739;SDS011;20967;48.442;9.994;2022-08-02T03:46:31;70.83;;;19.07;;
34739;SDS011;20967;48.442;9.994;2022-08-02T03:49:01;46.58;;;16.90;;
34739;SDS011;20967;48.442;9.994;2022-08-02T03:51:28;47.65;;;16.57;;
34739;SDS011;20967;48.442;9.994;2022-08-02T03:53:56;26.42;;;15.50;;
34739;SDS011;20967;48.442;9.994;2022-08-02T03:56:24;28.47;;;14.15;;
34739;SDS011;20967;48.442;9.994;2022-08-02T03:59:03;28.87;;;14.73;;
34739;SDS011;20967;48.442;9.994;2022-08-02T04:01:21;22.98;;;12.90;;
34739;SDS011;20967;48.442;9.994;2022-08-02T04:03:48;19.15;;;12.50;;
34739;SDS011;20967;48.442;9.994;2022-08-02T04:06:16;19.75;;;12.63;;
34739;SDS011;20967;48.442;9.994;2022-08-02T04:08:43;26.05;;;12.95;;
34739;SDS011;20967;48.442;9.994;2022-08-02T04:11:13;20.15;;;12.55;;
34739;SDS011;20967;48.442;9.994;2022-08-02T04:13:59;23.40;;;12.03;;
34739;SDS011;20967;48.442;9.994;2022-08-02T04:16:28;25.97;;;12.82;;
34739;SDS011;20967;48.442;9.994;2022-08-02T04:19:01;16.70;;;11.55;;
34739;SDS011;20967;48.442;9.994;2022-08-02T04:21:26;14.70;;;10.30;;
34739;SDS011;20967;48.442;9.994;2022-08-02T04:23:54;20.32;;;10.18;;
34739;SDS011;20967;48.442;9.994;2022-08-02T04:26:22;19.25;;;11.43;;
34739;SDS011;20967;48.442;9.994;2022-08-02T04:28:50;20.82;;;11.95;;
34739;SDS011;20967;48.442;9.994;2022-08-02T04:31:18;25.80;;;12.73;;
34739;SDS011;20967;48.442;9.994;2022-08-02T04:33:46;21.95;;;11.53;;
34739;SDS011;20967;48.442;9.994;2022-08-02T04:36:15;22.95;;;12.40;;
34739;SDS011;20967;48.442;9.994;2022-08-02T04:38:43;23.40;;;14.18;;
34739;SDS011;20967;48.442;9.994;2022-08-02T04:41:10;24.23;;;12.30;;
34739;SDS011;20967;48.442;9.994;2022-08-02T04:43:38;18.62;;;11.28;;
34739;SDS011;20967;48.442;9.994;2022-08-02T04:46:07;22.75;;;10.98;;
34739;SDS011;20967;48.442;9.994;2022-08-02T04:48:34;15.48;;;10.38;;
34739;SDS011;20967;48.442;9.994;2022-08-02T04:51:02;16.73;;;9.88;;
34739;SDS011;20967;48.442;9.994;2022-08-02T04:53:29;13.25;;;8.23;;
34739;SDS011;20967;48.442;9.994;2022-08-02T04:55:57;13.25;;;7.97;;
34739;SDS011;20967;48.442;9.994;2022-08-02T04:58:25;15.53;;;6.92;;
34739;SDS011;20967;48.442;9.994;2022-08-02T05:00:52;11.65;;;6.72;;
34739;SDS011;20967;48.442;9.994;2022-08-02T05:03:20;14.95;;;6.25;;
34739;SDS011;20967;48.442;9.994;2022-08-02T05:05:47;11.55;;;6.78;;
34739;SDS011;20967;48.442;9.994;2022-08-02T05:08:15;9.83;;;5.75;;
34739;SDS011;20967;48.442;9.994;2022-08-02T05:10:42;10.60;;;5.28;;
34739;SDS011;20967;48.442;9.994;2022-08-02T05:13:10;9.73;;;5.95;;
34739;SDS011;20967;48.442;9.994;2022-08-02T05:15:39;12.25;;;6.87;;
34739;SDS011;20967;48.442;9.994;2022-08-02T05:18:06;9.65;;;6.33;;
34739;SDS011;20967;48.442;9.994;2022-08-02T05:20:34;9.90;;;5.35;;
34739;SDS011;20967;48.442;9.994;2022-08-02T05:23:01;9.70;;;6.00;;
34739;SDS011;20967;48.442;9.994;2022-08-02T05:25:29;8.60;;;5.78;;
34739;SDS011;20967;48.442;9.994;2022-08-02T05:27:56;7.65;;;5.92;;
34739;SDS011;20967;48.442;9.994;2022-08-02T05:30:24;6.65;;;5.00;;
34739;SDS011;20967;48.442;9.994;2022-08-02T05:32:53;8.20;;;5.97;;
34739;SDS011;20967;48.442;9.994;2022-08-02T05:35:21;8.78;;;5.75;;
34739;SDS011;20967;48.442;9.994;2022-08-02T05:37:49;11.05;;;5.70;;
34739;SDS011;20967;48.442;9.994;2022-08-02T05:40:17;10.18;;;5.92;;
34739;SDS011;20967;48.442;9.994;2022-08-02T05:42:45;8.25;;;4.90;;
34739;SDS011;20967;48.442;9.994;2022-08-02T05:45:13;10.75;;;5.30;;
34739;SDS011;20967;48.442;9.994;2022-08-02T05:47:41;8.83;;;5.78;;
34739;SDS011;20967;48.442;9.994;2022-08-02T05:50:09;7.55;;;4.53;;
34739;SDS011;20967;48.442;9.994;2022-08-02T06:00:14;6.50;;;4.15;;
34739;SDS011;20967;48.442;9.994;2022-08-02T06:05:15;4.75;;;3.70;;
34739;SDS011;20967;48.442;9.994;2022-08-02T06:07:44;6.40;;;3.17;;
34739;SDS011;20967;48.442;9.994;2022-08-02T06:10:12;6.78;;;3.08;;
34739;SDS011;20967;48.442;9.994;2022-08-02T06:17:46;5.40;;;2.98;;
34739;SDS011;20967;48.442;9.994;2022-08-02T06:20:13;6.50;;;2.98;;
34739;SDS011;20967;48.442;9.994;2022-08-02T06:22:42;6.30;;;3.65;;
34739;SDS011;20967;48.442;9.994;2022-08-02T06:25:10;5.97;;;4.60;;
34739;SDS011;20967;48.442;9.994;2022-08-02T06:27:40;4.95;;;3.55;;
34739;SDS011;20967;48.442;9.994;2022-08-02T06:30:08;11.97;;;3.12;;
34739;SDS011;20967;48.442;9.994;2022-08-02T06:32:36;6.08;;;3.17;;
34739;SDS011;20967;48.442;9.994;2022-08-02T06:35:05;6.58;;;3.40;;
34739;SDS011;20967;48.442;9.994;2022-08-02T06:37:37;8.75;;;3.33;;
34739;SDS011;20967;48.442;9.994;2022-08-02T06:40:07;12.13;;;3.12;;
34739;SDS011;20967;48.442;9.994;2022-08-02T06:42:41;5.83;;;2.67;;
34739;SDS011;20967;48.442;9.994;2022-08-02T06:45:06;15.68;;;3.02;;
34739;SDS011;20967;48.442;9.994;2022-08-02T06:47:33;4.70;;;2.67;;
34739;SDS011;20967;48.442;9.994;2022-08-02T06:50:01;8.60;;;3.65;;
34739;SDS011;20967;48.442;9.994;2022-08-02T06:52:29;8.18;;;3.10;;
34739;SDS011;20967;48.442;9.994;2022-08-02T06:54:58;9.95;;;3.40;;
34739;SDS011;20967;48.442;9.994;2022-08-02T06:57:28;10.53;;;3.52;;
34739;SDS011;20967;48.442;9.994;2022-08-02T06:59:56;8.20;;;3.77;;
34739;SDS011;20967;48.442;9.994;2022-08-02T07:02:26;14.85;;;4.17;;
34739;SDS011;20967;48.442;9.994;2022-08-02T07:04:53;9.60;;;3.37;;
34739;SDS011;20967;48.442;9.994;2022-08-02T07:07:21;11.75;;;6.00;;
34739;SDS011;20967;48.442;9.994;2022-08-02T07:09:48;7.00;;;5.78;;
34739;SDS011;20967;48.442;9.994;2022-08-02T07:12:16;16.60;;;5.78;;
34739;SDS011;20967;48.442;9.994;2022-08-02T07:14:44;11.75;;;5.65;;
34739;SDS011;20967;48.442;9.994;2022-08-02T07:17:12;9.58;;;5.97;;
34739;SDS011;20967;48.442;9.994;2022-08-02T07:19:39;8.65;;;5.72;;
34739;SDS011;20967;48.442;9.994;2022-08-02T07:22:07;9.68;;;4.55;;
34739;SDS011;20967;48.442;9.994;2022-08-02T07:24:34;9.55;;;4.47;;
34739;SDS011;20967;48.442;9.994;2022-08-02T07:27:02;7.15;;;5.20;;
34739;SDS011;20967;48.442;9.994;2022-08-02T07:29:30;8.20;;;4.65;;
34739;SDS011;20967;48.442;9.994;2022-08-02T07:31:57;8.80;;;5.28;;
34739;SDS011;20967;48.442;9.994;2022-08-02T07:34:25;9.63;;;5.17;;
34739;SDS011;20967;48.442;9.994;2022-08-02T07:36:52;11.08;;;6.20;;
34739;SDS011;20967;48.442;9.994;2022-08-02T07:39:20;13.20;;;6.33;;
34739;SDS011;20967;48.442;9.994;2022-08-02T07:41:47;13.25;;;7.03;;
34739;SDS011;20967;48.442;9.994;2022-08-02T07:44:17;9.35;;;6.35;;
34739;SDS011;20967;48.442;9.994;2022-08-02T07:46:45;12.60;;;6.10;;
34739;SDS011;20967;48.442;9.994;2022-08-02T07:49:12;14.10;;;7.45;;
34739;SDS011;20967;48.442;9.994;2022-08-02T07:51:41;12.20;;;6.67;;
34739;SDS011;20967;48.442;9.994;2022-08-02T07:54:09;9.88;;;6.03;;
34739;SDS011;20967;48.442;9.994;2022-08-02T07:56:36;11.45;;;5.78;;
34739;SDS011;20967;48.442;9.994;2022-08-02T07:59:04;11.28;;;6.17;;
34739;SDS011;20967;48.442;9.994;2022-08-02T08:01:31;7.92;;;5.90;;
34739;SDS011;20967;48.442;9.994;2022-08-02T08:03:59;12.00;;;6.55;;
34739;SDS011;20967;48.442;9.994;2022-08-02T08:06:27;9.08;;;6.62;;
34739;SDS011;20967;48.442;9.994;2022-08-02T08:08:54;9.65;;;5.87;;
34739;SDS011;20967;48.442;9.994;2022-08-02T08:11:22;8.35;;;5.60;;
34739;SDS011;20967;48.442;9.994;2022-08-02T08:13:50;8.00;;;5.83;;
34739;SDS011;20967;48.442;9.994;2022-08-02T08:16:17;10.45;;;5.65;;
34739;SDS011;20967;48.442;9.994;2022-08-02T08:18:45;12.25;;;6.28;;
34739;SDS011;20967;48.442;9.994;2022-08-02T08:21:13;11.00;;;5.65;;
34739;SDS011;20967;48.442;9.994;2022-08-02T08:23:40;12.55;;;6.47;;
34739;SDS011;20967;48.442;9.994;2022-08-02T08:26:08;10.72;;;5.05;;
34739;SDS011;20967;48.442;9.994;2022-08-02T08:28:35;10.30;;;5.67;;
34739;SDS011;20967;48.442;9.994;2022-08-02T08:31:03;10.43;;;5.75;;
34739;SDS011;20967;48.442;9.994;2022-08-02T08:33:30;17.00;;;5.47;;
34739;SDS011;20967;48.442;9.994;2022-08-02T08:35:59;9.65;;;4.80;;
34739;SDS011;20967;48.442;9.994;2022-08-02T08:38:26;10.75;;;5.40;;
34739;SDS011;20967;48.442;9.994;2022-08-02T08:40:54;8.60;;;5.50;;
34739;SDS011;20967;48.442;9.994;2022-08-02T08:43:21;9.78;;;6.53;;
34739;SDS011;20967;48.442;9.994;2022-08-02T08:45:49;9.55;;;5.05;;
34739;SDS011;20967;48.442;9.994;2022-08-02T08:48:16;11.70;;;4.45;;
34739;SDS011;20967;48.442;9.994;2022-08-02T08:50:46;6.30;;;4.67;;
34739;SDS011;20967;48.442;9.994;2022-08-02T08:53:14;6.45;;;4.30;;
34739;SDS011;20967;48.442;9.994;2022-08-02T08:55:41;7.53;;;4.42;;
34739;SDS011;20967;48.442;9.994;2022-08-02T08:58:10;7.22;;;4.72;;
34739;SDS011;20967;48.442;9.994;2022-08-02T09:00:38;12.45;;;3.65;;
34739;SDS011;20967;48.442;9.994;2022-08-02T09:03:10;8.75;;;3.55;;
34739;SDS011;20967;48.442;9.994;2022-08-02T09:05:38;6.53;;;3.98;;
34739;SDS011;20967;48.442;9.994;2022-08-02T09:08:07;4.70;;;4.20;;
34739;SDS011;20967;48.442;9.994;2022-08-02T09:10:38;5.05;;;3.62;;
34739;SDS011;20967;48.442;9.994;2022-08-02T09:13:10;7.65;;;3.87;;
34739;SDS011;20967;48.442;9.994;2022-08-02T09:15:39;10.28;;;3.30;;
34739;SDS011;20967;48.442;9.994;2022-08-02T09:18:07;8.43;;;3.55;;
34739;SDS011;20967;48.442;9.994;2022-08-02T09:20:52;3.98;;;2.80;;
34739;SDS011;20967;48.442;9.994;2022-08-02T09:23:20;6.55;;;2.85;;
34739;SDS011;20967;48.442;9.994;2022-08-02T09:26:04;5.72;;;3.20;;
34739;SDS011;20967;48.442;9.994;2022-08-02T09:28:35;4.40;;;3.65;;
34739;SDS011;20967;48.442;9.994;2022-08-02T09:31:03;8.00;;;3.77;;
34739;SDS011;20967;48.442;9.994;2022-08-02T09:33:31;11.68;;;3.80;;
34739;SDS011;20967;48.442;9.994;2022-08-02T09:36:00;10.85;;;3.58;;
34739;SDS011;20967;48.442;9.994;2022-08-02T09:38:29;7.00;;;3.67;;
34739;SDS011;20967;48.442;9.994;2022-08-02T09:40:57;8.08;;;2.67;;
34739;SDS011;20967;48.442;9.994;2022-08-02T09:43:35;5.70;;;3.30;;
34739;SDS011;20967;48.442;9.994;2022-08-02T09:48:29;11.57;;;4.40;;
34739;SDS011;20967;48.442;9.994;2022-08-02T09:50:57;5.20;;;3.37;;
34739;SDS011;20967;48.442;9.994;2022-08-02T09:53:24;7.12;;;4.85;;
34739;SDS011;20967;48.442;9.994;2022-08-02T09:55:55;8.33;;;5.35;;
34739;SDS011;20967;48.442;9.994;2022-08-02T09:58:25;11.38;;;4.50;;
34739;SDS011;20967;48.442;9.994;2022-08-02T10:00:53;9.43;;;4.78;;
34739;SDS011;20967;48.442;9.994;2022-08-02T10:03:22;6.67;;;4.70;;
34739;SDS011;20967;48.442;9.994;2022-08-02T10:05:52;6.60;;;4.42;;
34739;SDS011;20967;48.442;9.994;2022-08-02T10:08:24;6.62;;;4.00;;
34739;SDS011;20967;48.442;9.994;2022-08-02T10:10:52;4.85;;;3.12;;
34739;SDS011;20967;48.442;9.994;2022-08-02T10:13:22;5.90;;;3.02;;
34739;SDS011;20967;48.442;9.994;2022-08-02T10:15:49;4.62;;;2.85;;
34739;SDS011;20967;48.442;9.994;2022-08-02T10:18:17;6.10;;;3.10;;
34739;SDS011;20967;48.442;9.994;2022-08-02T10:20:44;4.72;;;2.55;;
34739;SDS011;20967;48.442;9.994;2022-08-02T10:23:12;4.45;;;2.27;;
34739;SDS011;20967;48.442;9.994;2022-08-02T10:25:40;4.83;;;3.00;;
34739;SDS011;20967;48.442;9.994;2022-08-02T10:28:08;7.10;;;1.95;;
34739;SDS011;20967;48.442;9.994;2022-08-02T10:30:38;6.83;;;1.77;;
34739;SDS011;20967;48.442;9.994;2022-08-02T10:33:06;7.15;;;2.08;;
34739;SDS011;20967;48.442;9.994;2022-08-02T10:35:36;4.62;;;2.65;;
34739;SDS011;20967;48.442;9.994;2022-08-02T10:38:08;4.75;;;2.00;;
34739;SDS011;20967;48.442;9.994;2022-08-02T10:40:43;2.67;;;2.02;;
34739;SDS011;20967;48.442;9.994;2022-08-02T10:45:38;3.27;;;1.98;;
34739;SDS011;20967;48.442;9.994;2022-08-02T10:48:09;3.22;;;2.00;;
34739;SDS011;20967;48.442;9.994;2022-08-02T10:53:18;3.77;;;2.40;;
34739;SDS011;20967;48.442;9.994;2022-08-02T10:58:19;4.45;;;3.55;;
34739;SDS011;20967;48.442;9.994;2022-08-02T11:03:32;8.03;;;2.15;;
34739;SDS011;20967;48.442;9.994;2022-08-02T11:08:22;3.85;;;2.75;;
34739;SDS011;20967;48.442;9.994;2022-08-02T11:10:50;5.87;;;2.30;;
34739;SDS011;20967;48.442;9.994;2022-08-02T11:13:18;5.97;;;3.05;;
34739;SDS011;20967;48.442;9.994;2022-08-02T11:16:03;6.28;;;3.17;;
34739;SDS011;20967;48.442;9.994;2022-08-02T11:19:04;3.90;;;3.10;;
34739;SDS011;20967;48.442;9.994;2022-08-02T11:23:34;7.80;;;1.70;;
34739;SDS011;20967;48.442;9.994;2022-08-02T11:28:50;6.80;;;2.20;;
34739;SDS011;20967;48.442;9.994;2022-08-02T11:31:17;4.97;;;2.12;;
34739;SDS011;20967;48.442;9.994;2022-08-02T11:33:47;6.70;;;2.00;;
34739;SDS011;20967;48.442;9.994;2022-08-02T11:36:15;3.55;;;1.60;;
34739;SDS011;20967;48.442;9.994;2022-08-02T11:38:45;2.25;;;1.57;;
34739;SDS011;20967;48.442;9.994;2022-08-02T11:41:19;1.77;;;1.47;;
34739;SDS011;20967;48.442;9.994;2022-08-02T11:46:14;3.20;;;1.20;;
34739;SDS011;20967;48.442;9.994;2022-08-02T11:48:41;1.92;;;1.50;;
34739;SDS011;20967;48.442;9.994;2022-08-02T11:51:11;2.45;;;1.67;;
34739;SDS011;20967;48.442;9.994;2022-08-02T11:53:42;6.58;;;1.47;;
34739;SDS011;20967;48.442;9.994;2022-08-02T11:56:11;5.12;;;1.60;;
34739;SDS011;20967;48.442;9.994;2022-08-02T11:58:39;3.08;;;2.00;;
34739;SDS011;20967;48.442;9.994;2022-08-02T12:01:06;1.82;;;1.55;;
34739;SDS011;20967;48.442;9.994;2022-08-02T12:03:36;3.05;;;1.50;;
34739;SDS011;20967;48.442;9.994;2022-08-02T12:06:05;5.65;;;1.55;;
34739;SDS011;20967;48.442;9.994;2022-08-02T12:08:35;2.17;;;1.50;;
34739;SDS011;20967;48.442;9.994;2022-08-02T12:11:02;2.60;;;1.50;;
34739;SDS011;20967;48.442;9.994;2022-08-02T12:13:43;2.98;;;1.25;;
34739;SDS011;20967;48.442;9.994;2022-08-02T12:18:56;2.50;;;1.80;;
34739;SDS011;20967;48.442;9.994;2022-08-02T12:21:41;1.50;;;1.15;;
34739;SDS011;20967;48.442;9.994;2022-08-02T12:24:09;3.83;;;1.60;;
34739;SDS011;20967;48.442;9.994;2022-08-02T12:26:44;1.52;;;1.10;;
34739;SDS011;20967;48.442;9.994;2022-08-02T12:31:41;1.40;;;1.30;;
34739;SDS011;20967;48.442;9.994;2022-08-02T12:34:12;1.85;;;1.00;;
34739;SDS011;20967;48.442;9.994;2022-08-02T12:39:12;3.00;;;1.30;;
34739;SDS011;20967;48.442;9.994;2022-08-02T12:41:41;5.37;;;1.27;;
34739;SDS011;20967;48.442;9.994;2022-08-02T12:44:15;1.57;;;1.47;;
34739;SDS011;20967;48.442;9.994;2022-08-02T12:49:15;3.40;;;1.30;;
34739;SDS011;20967;48.442;9.994;2022-08-02T12:51:44;3.22;;;1.35;;
34739;SDS011;20967;48.442;9.994;2022-08-02T12:54:14;4.83;;;1.70;;
34739;SDS011;20967;48.442;9.994;2022-08-02T12:56:42;1.35;;;1.10;;
34739;SDS011;20967;48.442;9.994;2022-08-02T12:59:09;1.65;;;1.40;;
34739;SDS011;20967;48.442;9.994;2022-08-02T13:01:37;1.60;;;1.20;;
34739;SDS011;20967;48.442;9.994;2022-08-02T13:04:05;2.60;;;1.57;;
34739;SDS011;20967;48.442;9.994;2022-08-02T13:06:32;2.47;;;1.37;;
34739;SDS011;20967;48.442;9.994;2022-08-02T13:09:00;1.45;;;1.35;;
34739;SDS011;20967;48.442;9.994;2022-08-02T13:11:27;2.67;;;1.37;;
34739;SDS011;20967;48.442;9.994;2022-08-02T13:13:55;2.00;;;1.45;;
34739;SDS011;20967;48.442;9.994;2022-08-02T13:16:24;1.40;;;1.30;;
34739;SDS011;20967;48.442;9.994;2022-08-02T13:18:52;2.42;;;1.52;;
34739;SDS011;20967;48.442;9.994;2022-08-02T13:21:19;1.57;;;1.20;;
34739;SDS011;20967;48.442;9.994;2022-08-02T13:23:47;2.10;;;1.15;;
34739;SDS011;20967;48.442;9.994;2022-08-02T13:26:14;8.98;;;1.45;;
34739;SDS011;20967;48.442;9.994;2022-08-02T13:28:42;2.08;;;1.45;;
34739;SDS011;20967;48.442;9.994;2022-08-02T13:31:09;4.00;;;1.50;;
34739;SDS011;20967;48.442;9.994;2022-08-02T13:33:37;1.80;;;1.60;;
34739;SDS011;20967;48.442;9.994;2022-08-02T13:36:04;5.78;;;1.57;;
34739;SDS011;20967;48.442;9.994;2022-08-02T13:38:32;2.75;;;1.20;;
34739;SDS011;20967;48.442;9.994;2022-08-02T13:41:01;1.32;;;1.22;;
34739;SDS011;20967;48.442;9.994;2022-08-02T13:43:37;1.50;;;1.10;;
34739;SDS011;20967;48.442;9.994;2022-08-02T13:46:06;3.27;;;1.22;;
34739;SDS011;20967;48.442;9.994;2022-08-02T13:48:34;4.10;;;1.37;;
34739;SDS011;20967;48.442;9.994;2022-08-02T13:51:01;1.70;;;1.50;;
34739;SDS011;20967;48.442;9.994;2022-08-02T13:53:29;5.45;;;1.50;;
34739;SDS011;20967;48.442;9.994;2022-08-02T13:55:56;2.02;;;1.37;;
34739;SDS011;20967;48.442;9.994;2022-08-02T13:58:25;4.62;;;1.60;;
34739;SDS011;20967;48.442;9.994;2022-08-02T14:00:52;2.55;;;1.42;;
34739;SDS011;20967;48.442;9.994;2022-08-02T14:03:20;4.80;;;1.45;;
34739;SDS011;20967;48.442;9.994;2022-08-02T14:05:48;6.05;;;1.37;;
34739;SDS011;20967;48.442;9.994;2022-08-02T14:08:16;3.80;;;1.20;;
34739;SDS011;20967;48.442;9.994;2022-08-02T14:10:45;2.05;;;1.22;;
34739;SDS011;20967;48.442;9.994;2022-08-02T14:13:13;1.40;;;1.20;;
34739;SDS011;20967;48.442;9.994;2022-08-02T14:15:41;1.52;;;1.20;;
34739;SDS011;20967;48.442;9.994;2022-08-02T14:18:08;1.42;;;1.25;;
34739;SDS011;20967;48.442;9.994;2022-08-02T14:20:36;2.37;;;1.35;;
34739;SDS011;20967;48.442;9.994;2022-08-02T14:23:03;4.70;;;1.20;;
34739;SDS011;20967;48.442;9.994;2022-08-02T14:25:32;1.85;;;1.25;;
34739;SDS011;20967;48.442;9.994;2022-08-02T14:27:59;2.35;;;1.02;;
34739;SDS011;20967;48.442;9.994;2022-08-02T14:30:28;1.10;;;1.00;;
34739;SDS011;20967;48.442;9.994;2022-08-02T14:32:55;1.50;;;0.90;;
34739;SDS011;20967;48.442;9.994;2022-08-02T14:35:23;2.35;;;1.40;;
34739;SDS011;20967;48.442;9.994;2022-08-02T14:37:50;2.10;;;1.22;;
34739;SDS011;20967;48.442;9.994;2022-08-02T14:40:18;1.42;;;1.10;;
34739;SDS011;20967;48.442;9.994;2022-08-02T14:42:46;1.25;;;1.00;;
34739;SDS011;20967;48.442;9.994;2022-08-02T14:45:13;1.10;;;1.00;;
34739;SDS011;20967;48.442;9.994;2022-08-02T14:47:41;2.85;;;1.37;;
34739;SDS011;20967;48.442;9.994;2022-08-02T14:50:09;3.72;;;1.17;;
34739;SDS011;20967;48.442;9.994;2022-08-02T14:52:36;1.67;;;1.00;;
34739;SDS011;20967;48.442;9.994;2022-08-02T14:55:04;4.55;;;1.27;;
34739;SDS011;20967;48.442;9.994;2022-08-02T14:57:32;4.28;;;1.20;;
34739;SDS011;20967;48.442;9.994;2022-08-02T14:59:59;2.33;;;1.30;;
34739;SDS011;20967;48.442;9.994;2022-08-02T15:02:27;3.47;;;1.10;;
34739;SDS011;20967;48.442;9.994;2022-08-02T15:04:54;1.87;;;1.10;;
34739;SDS011;20967;48.442;9.994;2022-08-02T15:07:22;1.10;;;1.00;;
34739;SDS011;20967;48.442;9.994;2022-08-02T15:09:49;3.70;;;1.35;;
34739;SDS011;20967;48.442;9.994;2022-08-02T15:12:17;3.25;;;1.17;;
34739;SDS011;20967;48.442;9.994;2022-08-02T15:14:45;3.55;;;1.40;;
34739;SDS011;20967;48.442;9.994;2022-08-02T15:17:14;3.30;;;1.12;;
34739;SDS011;20967;48.442;9.994;2022-08-02T15:19:42;2.25;;;1.10;;
34739;SDS011;20967;48.442;9.994;2022-08-02T15:22:09;3.83;;;1.20;;
34739;SDS011;20967;48.442;9.994;2022-08-02T15:24:37;1.05;;;1.00;;
34739;SDS011;20967;48.442;9.994;2022-08-02T15:27:04;1.60;;;1.00;;
34739;SDS011;20967;48.442;9.994;2022-08-02T15:29:34;4.30;;;1.20;;
34739;SDS011;20967;48.442;9.994;2022-08-02T15:32:02;1.70;;;1.17;;
34739;SDS011;20967;48.442;9.994;2022-08-02T15:34:31;2.08;;;1.10;;
34739;SDS011;20967;48.442;9.994;2022-08-02T15:36:59;2.92;;;1.22;;
34739;SDS011;20967;48.442;9.994;2022-08-02T15:39:26;2.52;;;1.10;;
34739;SDS011;20967;48.442;9.994;2022-08-02T15:41:54;3.33;;;1.17;;
34739;SDS011;20967;48.442;9.994;2022-08-02T15:44:22;2.12;;;1.10;;